createdAt,value
2022-11-23T00:00:41.623Z,7.28
2022-11-23T00:03:15.907Z,6.57
2022-11-23T00:05:43.743Z,6.97
2022-11-23T00:08:12.807Z,5.85
2022-11-23T00:10:40.527Z,6.43
2022-11-23T00:13:08.098Z,7.18
2022-11-23T00:15:35.973Z,5.47
2022-11-23T00:18:03.680Z,5.53
2022-11-23T00:20:31.221Z,4.82
2022-11-23T00:22:58.821Z,3.60
2022-11-23T00:25:28.280Z,6.55
2022-11-23T00:27:56.135Z,5.72
2022-11-23T00:30:23.839Z,7.00
2022-11-23T00:32:51.437Z,4.88
2022-11-23T00:35:18.978Z,6.43
2022-11-23T00:37:46.555Z,7.60
2022-11-23T00:40:14.422Z,9.25
2022-11-23T00:42:43.837Z,13.25
2022-11-23T00:45:11.871Z,9.55
2022-11-23T00:47:39.532Z,10.63
2022-11-23T00:50:07.669Z,9.07
2022-11-23T00:52:35.267Z,10.48
2022-11-23T00:55:02.868Z,12.30
2022-11-23T00:57:30.548Z,9.35
2022-11-23T00:59:59.686Z,7.97
2022-11-23T01:02:27.261Z,9.85
2022-11-23T01:04:54.793Z,15.75
2022-11-23T01:07:22.427Z,8.25
2022-11-23T01:09:50.444Z,13.32
2022-11-23T01:12:18.195Z,14.02
2022-11-23T01:14:45.879Z,9.77
2022-11-23T01:17:14.787Z,9.60
2022-11-23T01:19:42.341Z,6.40
2022-11-23T01:22:09.911Z,8.75
2022-11-23T01:24:37.662Z,5.32
2022-11-23T01:27:05.332Z,4.20
2022-11-23T01:29:33.398Z,5.30
2022-11-23T01:32:01.594Z,6.47
2022-11-23T01:34:30.615Z,6.18
2022-11-23T01:36:58.214Z,5.22
2022-11-23T01:39:25.817Z,7.50
2022-11-23T01:41:53.380Z,6.32
2022-11-23T01:44:29.749Z,5.70
2022-11-23T01:46:59.692Z,5.97
2022-11-23T01:49:33.261Z,6.70
2022-11-23T01:52:05.225Z,7.00
2022-11-23T01:54:37.714Z,6.05
2022-11-23T01:57:10.112Z,5.70
2022-11-23T01:59:37.996Z,4.38
2022-11-23T02:02:06.403Z,4.63
2022-11-23T02:04:40.267Z,6.45
2022-11-23T02:07:08.243Z,5.65
2022-11-23T02:09:36.911Z,6.88
2022-11-23T02:12:08.103Z,6.32
2022-11-23T02:14:35.650Z,5.88
2022-11-23T02:17:03.323Z,5.38
2022-11-23T02:19:43.347Z,4.93
2022-11-23T02:22:17.032Z,6.00
2022-11-23T02:24:50.781Z,8.23
2022-11-23T02:27:20.810Z,7.50
2022-11-23T02:29:50.090Z,3.13
2022-11-23T02:32:23.041Z,3.65
2022-11-23T02:34:50.794Z,5.32
2022-11-23T02:37:19.457Z,7.00
2022-11-23T02:39:49.380Z,4.90
2022-11-23T02:42:17.007Z,8.05
2022-11-23T02:44:54.778Z,6.15
2022-11-23T02:47:22.559Z,4.32
2022-11-23T02:49:50.596Z,6.47
2022-11-23T02:52:18.859Z,5.60
2022-11-23T02:54:46.588Z,5.38
2022-11-23T02:57:14.555Z,4.82
2022-11-23T02:59:42.423Z,8.10
2022-11-23T03:02:11.535Z,3.92
2022-11-23T03:04:39.144Z,5.13
2022-11-23T03:07:06.806Z,5.93
2022-11-23T03:09:34.885Z,4.63
2022-11-23T03:12:02.641Z,4.25
2022-11-23T03:14:30.290Z,5.30
2022-11-23T03:16:57.835Z,3.80
2022-11-23T03:19:26.740Z,8.52
2022-11-23T03:21:54.268Z,4.93
2022-11-23T03:24:21.845Z,5.50
2022-11-23T03:26:49.678Z,6.50
2022-11-23T03:29:17.282Z,4.80
2022-11-23T03:31:44.916Z,5.47
2022-11-23T03:34:12.594Z,7.43
2022-11-23T03:36:41.618Z,7.82
2022-11-23T03:39:09.489Z,9.23
2022-11-23T03:41:37.108Z,6.50
2022-11-23T03:44:05.056Z,8.38
2022-11-23T03:46:32.799Z,12.57
2022-11-23T03:49:00.475Z,10.15
2022-11-23T03:51:28.473Z,8.57
2022-11-23T03:53:58.094Z,14.27
2022-11-23T03:56:25.905Z,10.60
2022-11-23T03:58:55.096Z,8.52
2022-11-23T04:01:22.655Z,5.97
2022-11-23T04:03:50.241Z,10.43
2022-11-23T04:06:17.863Z,8.95
2022-11-23T04:08:45.414Z,11.20
2022-11-23T04:11:14.471Z,7.65
2022-11-23T04:13:41.981Z,8.40
2022-11-23T04:16:09.499Z,5.10
2022-11-23T04:18:37.027Z,6.45
2022-11-23T04:21:04.748Z,5.22
2022-11-23T04:23:32.268Z,8.93
2022-11-23T04:25:59.789Z,7.68
2022-11-23T04:28:28.664Z,9.10
2022-11-23T04:30:58.698Z,6.55
2022-11-23T04:33:26.649Z,5.63
2022-11-23T04:35:54.208Z,6.15
2022-11-23T04:38:21.747Z,4.22
2022-11-23T04:40:49.650Z,6.38
2022-11-23T04:43:17.318Z,6.70
2022-11-23T04:45:46.493Z,6.90
2022-11-23T04:48:14.059Z,6.90
2022-11-23T04:50:43.790Z,10.50
2022-11-23T04:53:14.097Z,7.93
2022-11-23T04:55:41.631Z,4.90
2022-11-23T04:58:09.274Z,6.63
2022-11-23T05:00:36.819Z,5.22
2022-11-23T05:03:05.749Z,6.85
2022-11-23T05:05:33.343Z,4.88
2022-11-23T05:08:00.891Z,6.07
2022-11-23T05:10:28.460Z,5.82
2022-11-23T05:12:55.986Z,4.90
2022-11-23T05:15:23.583Z,5.75
2022-11-23T05:17:55.163Z,5.78
2022-11-23T05:20:26.691Z,8.63
2022-11-23T05:22:54.242Z,5.65
2022-11-23T05:25:21.926Z,6.07
2022-11-23T05:27:49.599Z,8.05
2022-11-23T05:30:17.184Z,7.68
2022-11-23T05:32:44.953Z,10.55
2022-11-23T05:35:12.639Z,9.43
2022-11-23T05:37:42.332Z,15.32
2022-11-23T05:40:10.987Z,12.65
2022-11-23T05:42:38.517Z,9.25
2022-11-23T05:45:11.359Z,10.27
2022-11-23T05:47:39.366Z,13.35
2022-11-23T05:50:08.044Z,13.02
2022-11-23T05:52:35.610Z,7.93
2022-11-23T05:55:05.094Z,13.98
2022-11-23T05:57:32.592Z,12.13
2022-11-23T06:00:00.158Z,10.07
2022-11-23T06:02:27.706Z,6.70
2022-11-23T06:04:55.276Z,13.88
2022-11-23T06:07:23.032Z,12.27
2022-11-23T06:09:50.784Z,10.80
2022-11-23T06:12:20.260Z,7.25
2022-11-23T06:14:48.196Z,9.02
2022-11-23T06:17:16.378Z,5.63
2022-11-23T06:19:53.045Z,9.43
2022-11-23T06:22:41.133Z,7.10
2022-11-23T06:25:09.483Z,7.30
2022-11-23T06:27:38.709Z,8.75
2022-11-23T06:30:07.902Z,10.48
2022-11-23T06:32:36.361Z,8.43
2022-11-23T06:35:04.838Z,6.68
2022-11-23T06:37:33.604Z,8.02
2022-11-23T06:40:04.600Z,11.52
2022-11-23T06:42:56.341Z,6.57
2022-11-23T06:45:23.891Z,14.95
2022-11-23T06:53:15.009Z,9.63
2022-11-23T06:55:42.976Z,8.07
2022-11-23T06:58:12.730Z,12.65
2022-11-23T07:00:40.290Z,8.20
2022-11-23T07:03:08.298Z,6.57
2022-11-23T07:05:36.017Z,5.97
2022-11-23T07:08:03.723Z,8.52
2022-11-23T07:10:32.853Z,10.70
2022-11-23T07:13:06.005Z,8.75
2022-11-23T07:15:35.318Z,11.80
2022-11-23T07:18:02.877Z,9.93
2022-11-23T07:20:30.436Z,10.40
2022-11-23T07:23:01.680Z,11.60
2022-11-23T07:25:29.364Z,9.98
2022-11-23T07:27:57.601Z,7.53
2022-11-23T07:30:29.301Z,6.65
2022-11-23T07:33:02.052Z,8.20
2022-11-23T07:35:30.333Z,9.75
2022-11-23T07:37:58.086Z,7.80
2022-11-23T07:40:26.380Z,6.43
2022-11-23T07:42:54.184Z,10.95
2022-11-23T07:45:22.970Z,8.18
2022-11-23T07:47:59.148Z,10.07
2022-11-23T07:50:28.824Z,7.65
2022-11-23T07:52:56.688Z,7.88
2022-11-23T07:55:24.601Z,8.48
2022-11-23T07:57:55.698Z,7.60
2022-11-23T08:00:24.129Z,7.88
2022-11-23T08:03:25.778Z,5.32
2022-11-23T08:05:42.571Z,5.38
2022-11-23T08:08:10.222Z,4.80
2022-11-23T08:10:44.182Z,4.55
2022-11-23T08:13:12.805Z,5.95
2022-11-23T08:15:40.426Z,5.72
2022-11-23T08:18:08.056Z,6.45
2022-11-23T08:20:35.683Z,7.25
2022-11-23T08:23:04.574Z,5.47
2022-11-23T08:25:32.183Z,6.15
2022-11-23T08:28:01.005Z,7.95
2022-11-23T08:30:30.211Z,6.43
2022-11-23T08:32:57.851Z,4.75
2022-11-23T08:35:25.844Z,7.32
2022-11-23T08:37:53.556Z,6.88
2022-11-23T08:40:41.851Z,7.88
2022-11-23T08:43:09.950Z,6.57
2022-11-23T08:45:37.505Z,6.75
2022-11-23T08:48:06.758Z,7.05
2022-11-23T08:50:37.354Z,6.18
2022-11-23T08:53:20.832Z,6.55
2022-11-23T08:55:50.054Z,9.02
2022-11-23T08:58:18.023Z,8.07
2022-11-23T09:00:45.970Z,4.63
2022-11-23T09:03:14.079Z,6.63
2022-11-23T09:05:41.616Z,8.32
2022-11-23T09:08:09.951Z,5.93
2022-11-23T09:10:38.191Z,5.50
2022-11-23T09:13:07.542Z,7.38
2022-11-23T09:15:36.196Z,6.97
2022-11-23T09:18:04.208Z,7.80
2022-11-23T09:20:35.123Z,10.68
2022-11-23T09:23:03.665Z,8.90
2022-11-23T09:25:32.480Z,8.60
2022-11-23T09:28:01.167Z,7.90
2022-11-23T09:30:30.889Z,5.20
2022-11-23T09:32:59.070Z,6.35
2022-11-23T09:35:27.701Z,6.00
2022-11-23T09:37:58.813Z,11.07
2022-11-23T09:40:31.321Z,6.32
2022-11-23T09:43:18.235Z,8.68
2022-11-23T09:45:50.242Z,8.02
2022-11-23T09:48:41.849Z,6.13
2022-11-23T09:51:16.845Z,9.75
2022-11-23T09:53:49.348Z,8.05
2022-11-23T09:56:19.980Z,5.57
2022-11-23T09:58:48.157Z,7.13
2022-11-23T10:01:17.630Z,7.68
2022-11-23T10:03:49.088Z,5.88
2022-11-23T10:06:25.879Z,5.27
2022-11-23T10:09:18.834Z,10.60
2022-11-23T10:12:23.907Z,5.57
2022-11-23T10:15:17.386Z,9.40
2022-11-23T10:18:06.584Z,6.28
2022-11-23T10:20:55.560Z,6.25
2022-11-23T10:23:40.910Z,6.18
2022-11-23T10:26:14.340Z,5.20
2022-11-23T10:28:43.025Z,7.43
2022-11-23T10:31:18.660Z,8.80
2022-11-23T10:33:59.539Z,5.38
2022-11-23T10:36:27.647Z,9.80
2022-11-23T10:39:01.432Z,7.72
2022-11-23T10:41:37.819Z,8.55
2022-11-23T10:44:21.608Z,6.63
2022-11-23T10:46:49.464Z,5.47
2022-11-23T10:49:24.711Z,9.85
2022-11-23T10:51:59.069Z,5.63
2022-11-23T10:54:33.933Z,5.93
2022-11-23T10:57:08.006Z,8.32
2022-11-23T10:59:47.368Z,7.13
2022-11-23T11:02:23.603Z,9.50
2022-11-23T11:05:19.627Z,7.03
2022-11-23T11:07:48.038Z,8.10
2022-11-23T11:13:26.148Z,4.38
2022-11-23T11:16:01.738Z,5.40
2022-11-23T11:18:31.975Z,7.82
2022-11-23T11:21:08.909Z,5.60
2022-11-23T11:23:41.589Z,4.50
2022-11-23T11:28:55.604Z,5.07
2022-11-23T11:34:53.301Z,4.78
2022-11-23T11:37:31.708Z,4.50
2022-11-23T11:40:14.645Z,6.70
2022-11-23T11:42:54.150Z,5.30
2022-11-23T11:45:28.887Z,2.55
2022-11-23T11:48:06.254Z,6.85
2022-11-23T11:50:40.071Z,4.07
2022-11-23T11:53:14.964Z,2.97
2022-11-23T11:55:52.306Z,4.93
2022-11-23T11:58:23.794Z,6.18
2022-11-23T12:00:54.453Z,2.85
2022-11-23T12:03:40.246Z,5.32
2022-11-23T12:06:15.514Z,3.95
2022-11-23T12:08:53.349Z,3.08
2022-11-23T12:11:37.977Z,4.22
2022-11-23T12:14:09.384Z,2.60
2022-11-23T12:16:45.546Z,5.10
2022-11-23T12:19:21.037Z,7.57
2022-11-23T12:22:15.583Z,1.98
2022-11-23T12:25:00.219Z,2.42
2022-11-23T12:27:43.453Z,4.72
2022-11-23T12:30:23.241Z,3.42
2022-11-23T12:33:17.358Z,5.07
2022-11-23T12:35:56.965Z,4.80
2022-11-23T12:38:34.976Z,3.13
2022-11-23T12:41:24.097Z,3.67
2022-11-23T12:44:11.057Z,2.55
2022-11-23T12:46:47.070Z,4.00
2022-11-23T12:49:28.033Z,6.72
2022-11-23T12:52:06.488Z,7.15
2022-11-23T12:54:46.719Z,4.60
2022-11-23T12:57:22.118Z,16.15
2022-11-23T12:59:55.644Z,2.83
2022-11-23T13:02:48.559Z,3.20
2022-11-23T13:05:48.191Z,6.93
2022-11-23T13:08:51.441Z,5.15
2022-11-23T13:14:08.801Z,5.90
2022-11-23T13:16:54.968Z,6.50
2022-11-23T13:19:37.468Z,3.33
2022-11-23T13:22:09.498Z,3.05
2022-11-23T13:24:42.280Z,2.47
2022-11-23T13:27:41.727Z,2.72
2022-11-23T13:30:24.441Z,4.85
2022-11-23T13:33:00.145Z,4.32
2022-11-23T13:39:01.856Z,1.15
2022-11-23T13:57:14.588Z,1.65
2022-11-23T14:16:30.172Z,3.05
2022-11-23T14:19:22.921Z,4.38
2022-11-23T14:22:15.491Z,4.03
2022-11-23T14:25:28.016Z,3.35
2022-11-23T14:33:28.989Z,4.30
2022-11-23T14:36:08.608Z,6.07
2022-11-23T14:39:01.711Z,4.53
2022-11-23T14:44:05.936Z,4.68
2022-11-23T14:46:38.801Z,5.20
2022-11-23T14:49:14.679Z,4.05
2022-11-23T14:51:49.660Z,4.75
2022-11-23T14:54:22.756Z,4.65
2022-11-23T14:56:55.622Z,3.92
2022-11-23T14:59:28.174Z,4.05
2022-11-23T15:01:59.860Z,3.05
2022-11-23T15:04:41.893Z,6.13
2022-11-23T15:07:17.558Z,11.15
2022-11-23T15:09:57.675Z,3.67
2022-11-23T15:12:42.777Z,7.35
2022-11-23T15:15:26.385Z,6.82
2022-11-23T15:18:00.214Z,7.55
2022-11-23T15:20:32.869Z,7.22
2022-11-23T15:23:20.471Z,6.28
2022-11-23T15:25:57.313Z,4.28
2022-11-23T15:28:33.277Z,10.07
2022-11-23T15:31:03.818Z,10.07
2022-11-23T15:33:36.997Z,7.97
2022-11-23T15:36:14.150Z,7.90
2022-11-23T15:38:44.551Z,8.48
2022-11-23T15:41:28.641Z,6.47
2022-11-23T15:44:12.229Z,11.13
2022-11-23T15:46:43.889Z,7.78
2022-11-23T15:49:25.545Z,11.43
2022-11-23T15:52:08.666Z,7.65
2022-11-23T15:57:36.455Z,6.07
2022-11-23T16:00:26.100Z,12.07
2022-11-23T16:02:54.383Z,7.60
2022-11-23T16:05:23.630Z,6.05
2022-11-23T16:07:54.420Z,5.07
2022-11-23T16:10:24.494Z,7.90
2022-11-23T16:12:58.361Z,15.13
2022-11-23T16:15:46.640Z,8.65
2022-11-23T16:18:25.495Z,8.30
2022-11-23T16:20:57.752Z,6.60
2022-11-23T16:23:29.504Z,5.95
2022-11-23T16:26:01.801Z,9.68
2022-11-23T16:28:33.305Z,7.57
2022-11-23T16:31:04.266Z,5.30
2022-11-23T16:33:33.164Z,6.53
2022-11-23T16:36:02.100Z,6.22
2022-11-23T16:38:32.581Z,2.90
2022-11-23T16:41:01.356Z,7.25
2022-11-23T16:43:29.723Z,3.13
2022-11-23T16:45:58.090Z,5.65
2022-11-23T16:48:40.916Z,7.00
2022-11-23T16:54:11.768Z,3.45
2022-11-23T16:56:31.037Z,5.75
2022-11-23T16:58:59.459Z,6.75
2022-11-23T17:01:30.010Z,4.03
2022-11-23T17:04:00.275Z,4.85
2022-11-23T17:06:28.544Z,8.77
2022-11-23T17:09:06.252Z,5.82
2022-11-23T17:11:39.235Z,7.38
2022-11-23T17:14:07.925Z,5.38
2022-11-23T17:16:36.905Z,8.18
2022-11-23T17:19:10.546Z,8.15
2022-11-23T17:21:38.945Z,11.52
2022-11-23T17:24:07.309Z,9.40
2022-11-23T17:26:38.023Z,7.40
2022-11-23T17:29:07.957Z,6.38
2022-11-23T17:31:35.960Z,11.10
2022-11-23T17:34:04.334Z,8.25
2022-11-23T17:36:34.079Z,8.57
2022-11-23T17:39:03.815Z,7.80
2022-11-23T17:41:32.205Z,9.32
2022-11-23T17:44:00.404Z,7.97
2022-11-23T17:46:31.692Z,8.93
2022-11-23T17:49:02.628Z,7.60
2022-11-23T17:51:32.095Z,10.73
2022-11-23T17:54:04.467Z,10.23
2022-11-23T17:56:32.612Z,11.23
2022-11-23T17:59:01.009Z,7.57
2022-11-23T18:01:30.093Z,9.80
2022-11-23T18:04:01.408Z,6.32
2022-11-23T18:06:30.399Z,9.98
2022-11-23T18:08:58.836Z,8.70
2022-11-23T18:11:29.324Z,7.32
2022-11-23T18:13:59.857Z,3.42
2022-11-23T18:16:28.904Z,4.05
2022-11-23T18:18:57.259Z,2.33
2022-11-23T18:21:26.060Z,2.15
2022-11-23T18:23:54.487Z,2.20
2022-11-23T18:26:25.830Z,1.77
2022-11-23T18:28:57.898Z,0.82
2022-11-23T18:31:26.516Z,0.80
2022-11-23T18:33:55.233Z,2.90
2022-11-23T18:36:24.869Z,1.55
2022-11-23T18:38:54.110Z,1.42
2022-11-23T18:41:22.914Z,2.65
2022-11-23T18:43:51.435Z,1.27
2022-11-23T18:46:21.526Z,0.68
2022-11-23T18:48:51.884Z,1.60
2022-11-23T18:51:20.576Z,2.72
2022-11-23T18:53:50.308Z,2.78
2022-11-23T18:56:19.489Z,1.92
2022-11-23T18:58:49.530Z,1.80
2022-11-23T19:01:19.487Z,5.53
2022-11-23T19:03:51.597Z,1.30
2022-11-23T19:06:22.461Z,2.45
2022-11-23T19:08:53.877Z,1.40
2022-11-23T19:11:24.650Z,2.88
2022-11-23T19:13:54.744Z,1.13
2022-11-23T19:16:25.076Z,2.67
2022-11-23T19:19:00.810Z,1.60
2022-11-23T19:21:31.343Z,1.52
2022-11-23T19:24:00.832Z,1.27
2022-11-23T19:26:30.719Z,2.53
2022-11-23T19:28:59.633Z,2.42
2022-11-23T19:31:30.116Z,3.05
2022-11-23T19:34:02.161Z,1.50
2022-11-23T19:36:33.429Z,0.70
2022-11-23T19:39:03.016Z,0.77
2022-11-23T19:41:31.807Z,1.52
2022-11-23T19:44:01.223Z,2.40
2022-11-23T19:46:30.906Z,2.60
2022-11-23T19:49:00.668Z,3.90
2022-11-23T19:51:29.516Z,2.17
2022-11-23T19:54:00.247Z,3.15
2022-11-23T19:56:30.181Z,5.30
2022-11-23T19:59:00.843Z,2.35
2022-11-23T20:01:32.083Z,3.20
2022-11-23T20:04:08.862Z,2.92
2022-11-23T20:06:38.853Z,2.47
2022-11-23T20:09:08.926Z,2.05
2022-11-23T20:11:46.835Z,5.78
2022-11-23T20:14:17.745Z,1.67
2022-11-23T20:16:45.760Z,2.50
2022-11-23T20:19:15.565Z,4.00
2022-11-23T20:21:44.316Z,3.65
2022-11-23T20:24:15.125Z,2.92
2022-11-23T20:26:44.919Z,5.40
2022-11-23T20:34:26.385Z,3.65
2022-11-23T20:36:54.892Z,3.53
2022-11-23T20:39:22.772Z,4.28
2022-11-23T20:41:50.616Z,4.20
2022-11-23T20:44:32.346Z,4.47
2022-11-23T20:47:02.959Z,4.70
2022-11-23T20:49:33.449Z,4.22
2022-11-23T20:52:03.267Z,4.13
2022-11-23T20:54:36.998Z,5.97
2022-11-23T20:57:04.981Z,3.50
2022-11-23T20:59:32.972Z,2.45
2022-11-23T21:02:01.868Z,5.07
2022-11-23T21:04:29.970Z,2.90
2022-11-23T21:07:02.529Z,3.03
2022-11-23T21:12:50.650Z,4.38
2022-11-23T21:17:53.604Z,3.35
2022-11-23T21:20:21.664Z,3.65
2022-11-23T21:22:50.834Z,2.67
2022-11-23T21:25:18.611Z,3.95
2022-11-23T21:27:46.717Z,3.95
2022-11-23T21:30:17.297Z,2.75
2022-11-23T21:32:44.855Z,2.08
2022-11-23T21:35:12.385Z,2.80
2022-11-23T21:37:40.392Z,3.42
2022-11-23T21:40:12.104Z,4.43
2022-11-23T21:42:40.182Z,3.92
2022-11-23T21:45:09.700Z,4.15
2022-11-23T21:47:37.711Z,3.58
2022-11-23T21:50:06.465Z,3.75
2022-11-23T21:52:34.625Z,4.60
2022-11-23T21:55:02.704Z,2.85
2022-11-23T21:57:33.572Z,7.72
2022-11-23T22:00:01.469Z,4.85
2022-11-23T22:02:29.567Z,3.83
2022-11-23T22:04:57.590Z,3.85
2022-11-23T22:07:25.438Z,6.57
2022-11-23T22:09:53.021Z,4.25
2022-11-23T22:12:21.158Z,4.00
2022-11-23T22:14:50.015Z,7.05
2022-11-23T22:17:17.515Z,4.15
2022-11-23T22:19:45.047Z,5.40
2022-11-23T22:22:12.560Z,5.65
2022-11-23T22:24:40.070Z,6.20
2022-11-23T22:27:07.555Z,6.55
2022-11-23T22:29:35.111Z,8.90
2022-11-23T22:32:04.092Z,5.22
2022-11-23T22:34:33.494Z,6.57
2022-11-23T22:37:04.526Z,6.20
2022-11-23T22:39:35.008Z,6.65
2022-11-23T22:42:02.723Z,6.43
2022-11-23T22:44:30.437Z,7.50
2022-11-23T22:46:58.207Z,3.45
2022-11-23T22:49:27.207Z,5.43
2022-11-23T22:51:54.711Z,5.63
2022-11-23T22:54:22.248Z,6.00
2022-11-23T22:56:49.754Z,7.22
2022-11-23T22:59:17.288Z,7.57
2022-11-23T23:01:44.793Z,6.55
2022-11-23T23:04:12.372Z,7.75
2022-11-23T23:06:41.250Z,10.55
2022-11-23T23:09:09.235Z,6.65
2022-11-23T23:11:37.376Z,10.50
2022-11-23T23:14:04.975Z,9.38
2022-11-23T23:16:33.020Z,5.18
2022-11-23T23:19:00.945Z,7.25
2022-11-23T23:21:29.498Z,7.55
2022-11-23T23:24:00.236Z,6.47
2022-11-23T23:26:28.474Z,9.40
2022-11-23T23:28:57.140Z,5.13
2022-11-23T23:31:25.660Z,8.73
2022-11-23T23:33:54.486Z,5.93
2022-11-23T23:36:23.433Z,8.57
2022-11-23T23:38:51.273Z,6.85
2022-11-23T23:41:20.321Z,11.95
2022-11-23T23:43:48.792Z,7.82
2022-11-23T23:46:16.755Z,6.43
2022-11-23T23:48:44.613Z,14.20
2022-11-23T23:51:14.074Z,7.72
2022-11-23T23:53:41.909Z,10.88
2022-11-23T23:56:14.378Z,6.78
2022-11-23T23:58:43.587Z,6.55
